Time;durP1;ratioP1;P1;durP2;ratioP2;P2;SDS_P1;SDS_P2;PMS_P1;PMS_P2;Temp;Humidity;BMP_temperature;BMP_pressure;BME280_temperature;BME280_humidity;BME280_pressure;Samples;Min_cycle;Max_cycle;Signal;HPM_P1;HPM_P2
2022/07/23 00:02:12;;;;;;;3.30;3.00;;;18.30;90.50;;;;;;605766;235;26615;-66
2022/07/23 00:04:39;;;;;;;4.03;3.72;;;18.20;90.50;;;;;;606614;236;26836;-66
2022/07/23 00:07:06;;;;;;;3.85;3.55;;;18.20;90.40;;;;;;604373;236;26581;-66
2022/07/23 00:09:33;;;;;;;3.83;3.42;;;18.20;90.30;;;;;;605853;232;26852;-66
2022/07/23 00:12:02;;;;;;;3.70;3.45;;;18.10;90.50;;;;;;610069;230;26670;-66
2022/07/23 00:14:29;;;;;;;5.28;4.00;;;18.10;90.50;;;;;;610182;236;26651;-66
2022/07/23 00:16:56;;;;;;;4.65;3.53;;;18.10;90.30;;;;;;603559;236;26546;-66
2022/07/23 00:19:24;;;;;;;3.95;3.50;;;18.00;90.50;;;;;;601881;236;26585;-66
2022/07/23 00:21:52;;;;;;;3.42;3.12;;;18.00;90.60;;;;;;601842;236;26610;-66
2022/07/23 00:24:20;;;;;;;3.90;3.50;;;18.10;90.60;;;;;;606457;236;26676;-66
2022/07/23 00:26:48;;;;;;;3.35;3.15;;;18.10;90.30;;;;;;602172;235;26585;-66
2022/07/23 00:29:15;;;;;;;4.80;3.53;;;18.10;90.30;;;;;;604453;236;26584;-66
2022/07/23 00:31:43;;;;;;;5.40;3.30;;;18.10;90.10;;;;;;604462;236;26585;-66
2022/07/23 00:34:10;;;;;;;3.90;3.60;;;18.10;90.10;;;;;;601791;238;27230;-66
2022/07/23 00:36:37;;;;;;;4.03;3.67;;;18.00;90.10;;;;;;604134;237;26570;-66
2022/07/23 00:39:04;;;;;;;3.80;3.30;;;18.00;90.10;;;;;;604957;238;26792;-66
2022/07/23 00:41:31;;;;;;;3.75;3.22;;;18.00;90.00;;;;;;604455;235;26550;-66
2022/07/23 00:44:18;;;;;;;4.05;3.70;;;18.00;89.90;;;;;;602837;236;26816;-67
2022/07/23 00:46:46;;;;;;;3.33;3.12;;;18.10;90.00;;;;;;608598;234;26557;-66
2022/07/23 00:49:14;;;;;;;3.30;3.00;;;18.00;90.10;;;;;;605083;236;26553;-66
2022/07/23 00:51:41;;;;;;;3.40;2.90;;;18.00;90.20;;;;;;605197;235;26840;-66
2022/07/23 00:54:09;;;;;;;3.40;3.10;;;17.90;90.40;;;;;;605034;237;26644;-66
2022/07/23 00:56:37;;;;;;;3.03;2.72;;;17.90;90.50;;;;;;608525;235;26645;-66
2022/07/23 00:59:05;;;;;;;3.30;3.03;;;17.90;90.60;;;;;;606365;235;26626;-66
2022/07/23 01:01:33;;;;;;;3.67;3.37;;;17.80;90.80;;;;;;604829;234;26583;-66
2022/07/23 01:04:01;;;;;;;4.50;3.20;;;17.70;91.00;;;;;;608360;235;26599;-66
2022/07/23 01:06:28;;;;;;;3.17;2.97;;;17.70;91.00;;;;;;605939;235;27323;-66
2022/07/23 01:08:55;;;;;;;3.10;2.90;;;17.70;91.20;;;;;;605604;234;26585;-66
2022/07/23 01:11:23;;;;;;;3.00;2.80;;;17.70;91.40;;;;;;601826;238;26925;-66
2022/07/23 01:13:50;;;;;;;2.87;2.70;;;17.60;91.60;;;;;;602067;236;26885;-66
2022/07/23 01:16:17;;;;;;;2.87;2.67;;;17.50;91.70;;;;;;609100;235;26628;-66
2022/07/23 01:18:44;;;;;;;3.50;3.20;;;17.50;92.10;;;;;;605006;237;26850;-66
2022/07/23 01:21:12;;;;;;;3.78;3.47;;;17.40;92.30;;;;;;604834;235;26590;-66
2022/07/23 01:23:39;;;;;;;3.95;3.10;;;17.40;92.60;;;;;;603698;236;26593;-66
2022/07/23 01:26:07;;;;;;;3.45;3.15;;;17.30;92.90;;;;;;602088;235;26586;-66
2022/07/23 01:28:35;;;;;;;6.22;3.58;;;17.30;93.00;;;;;;601666;237;26585;-66
2022/07/23 01:31:03;;;;;;;3.45;3.15;;;17.20;93.00;;;;;;607053;236;26609;-66
2022/07/23 01:33:31;;;;;;;3.20;3.00;;;17.20;93.40;;;;;;607626;235;26642;-66
2022/07/23 01:35:58;;;;;;;3.60;3.30;;;17.20;93.40;;;;;;604532;235;26838;-66
2022/07/23 01:38:25;;;;;;;4.00;3.17;;;17.20;93.40;;;;;;604255;236;26586;-66
2022/07/23 01:40:52;;;;;;;3.33;3.12;;;17.20;93.60;;;;;;603414;236;26850;-67
2022/07/23 01:43:19;;;;;;;3.53;3.22;;;17.20;93.70;;;;;;602496;238;26626;-67
2022/07/23 01:45:47;;;;;;;3.15;2.85;;;17.20;93.80;;;;;;602041;236;26881;-66
2022/07/23 01:48:15;;;;;;;3.60;3.30;;;17.20;93.90;;;;;;602386;237;26571;-67
2022/07/23 01:50:41;;;;;;;3.30;3.00;;;17.10;94.00;;;;;;604334;238;27109;-66
2022/07/23 01:53:08;;;;;;;3.80;3.50;;;17.10;93.80;;;;;;604218;236;26602;-67
2022/07/23 01:55:35;;;;;;;3.08;2.85;;;17.20;93.70;;;;;;601812;238;26858;-67
2022/07/23 01:58:03;;;;;;;3.20;2.92;;;17.20;93.80;;;;;;601645;236;26549;-67
2022/07/23 02:00:31;;;;;;;4.37;3.30;;;17.20;93.70;;;;;;607427;235;26640;-66
2022/07/23 02:02:59;;;;;;;3.33;3.03;;;17.20;93.30;;;;;;606458;235;26648;-66
2022/07/23 02:05:28;;;;;;;2.97;2.78;;;17.30;93.30;;;;;;610485;235;26640;-66
2022/07/23 02:07:54;;;;;;;3.90;3.15;;;17.30;93.30;;;;;;610701;234;26636;-66
2022/07/23 02:10:22;;;;;;;3.58;3.28;;;17.40;93.10;;;;;;609342;234;26818;-66
2022/07/23 02:12:50;;;;;;;4.25;3.50;;;17.40;93.00;;;;;;603081;235;26655;-66
2022/07/23 02:15:18;;;;;;;3.53;3.22;;;17.40;92.80;;;;;;602592;238;26621;-66
2022/07/23 02:17:46;;;;;;;3.78;3.47;;;17.40;93.00;;;;;;603884;235;26639;-66
2022/07/23 02:20:14;;;;;;;3.47;3.17;;;17.40;92.80;;;;;;605624;236;26706;-66
2022/07/23 02:22:41;;;;;;;3.40;3.00;;;17.40;92.80;;;;;;602282;236;26614;-66
2022/07/23 02:25:09;;;;;;;3.15;2.95;;;17.40;92.60;;;;;;598804;235;27098;-66
2022/07/23 02:27:35;;;;;;;4.53;3.12;;;17.40;92.60;;;;;;605176;230;26807;-66
2022/07/23 02:30:03;;;;;;;4.62;3.15;;;17.40;92.60;;;;;;601959;236;26593;-66
2022/07/23 02:32:30;;;;;;;4.28;3.20;;;17.30;92.70;;;;;;605003;238;26622;-66
2022/07/23 02:34:58;;;;;;;3.55;3.25;;;17.20;92.90;;;;;;605014;238;26629;-66
2022/07/23 02:37:25;;;;;;;3.15;2.85;;;17.20;92.90;;;;;;604965;232;26587;-66
2022/07/23 02:39:53;;;;;;;3.35;3.10;;;17.30;92.90;;;;;;604721;238;26592;-67
2022/07/23 02:42:20;;;;;;;3.20;2.95;;;17.20;93.10;;;;;;602391;238;26951;-67
2022/07/23 02:44:47;;;;;;;3.25;3.05;;;17.10;93.00;;;;;;604548;235;26574;-67
2022/07/23 02:47:14;;;;;;;3.65;3.35;;;17.10;93.40;;;;;;602464;236;26851;-67
2022/07/23 02:49:42;;;;;;;3.42;3.12;;;17.00;93.70;;;;;;602585;235;26577;-66
2022/07/23 02:52:10;;;;;;;2.50;2.30;;;16.80;94.30;;;;;;604452;238;26603;-66
2022/07/23 02:54:38;;;;;;;3.42;3.15;;;16.80;94.80;;;;;;609990;235;26640;-66
2022/07/23 02:57:05;;;;;;;2.78;2.62;;;16.70;94.50;;;;;;610269;235;26636;-67
2022/07/23 02:59:33;;;;;;;3.83;3.17;;;16.70;94.80;;;;;;609388;235;26629;-66
2022/07/23 03:02:00;;;;;;;2.97;2.78;;;16.70;95.00;;;;;;603381;237;26858;-66
2022/07/23 03:04:27;;;;;;;3.60;3.30;;;16.70;95.20;;;;;;603928;236;26615;-66
2022/07/23 03:06:54;;;;;;;2.83;2.62;;;16.70;95.20;;;;;;608653;236;27285;-66
2022/07/23 03:09:21;;;;;;;3.30;3.10;;;16.70;95.20;;;;;;605827;236;26636;-67
2022/07/23 03:11:49;;;;;;;2.95;2.62;;;16.80;95.30;;;;;;605633;236;27276;-66
2022/07/23 03:14:16;;;;;;;3.85;3.17;;;16.80;95.20;;;;;;605563;235;26582;-66
2022/07/23 03:16:43;;;;;;;2.90;2.70;;;16.80;94.90;;;;;;605985;236;27275;-66
2022/07/23 03:19:10;;;;;;;3.12;2.87;;;16.80;94.80;;;;;;609851;234;26653;-66
2022/07/23 03:21:40;;;;;;;3.08;2.87;;;16.80;94.40;;;;;;603962;237;26617;-65
2022/07/23 03:24:05;;;;;;;4.12;2.90;;;16.70;94.40;;;;;;604962;235;26888;-66
2022/07/23 03:26:33;;;;;;;4.57;3.20;;;16.70;94.50;;;;;;602242;238;26640;-66
2022/07/23 03:29:01;;;;;;;4.43;2.92;;;16.70;94.40;;;;;;605826;235;27281;-66
2022/07/23 03:31:27;;;;;;;2.87;2.67;;;16.60;94.60;;;;;;608241;235;26583;-66
2022/07/23 03:33:54;;;;;;;3.67;2.75;;;16.60;94.70;;;;;;604977;237;26866;-66
2022/07/23 03:36:23;;;;;;;2.70;2.50;;;16.50;94.80;;;;;;608089;236;26585;-66
2022/07/23 03:38:50;;;;;;;3.30;3.00;;;16.50;94.80;;;;;;610102;236;26641;-66
2022/07/23 03:41:17;;;;;;;3.45;2.65;;;16.50;94.90;;;;;;609664;234;26816;-66
2022/07/23 03:43:45;;;;;;;3.15;2.85;;;16.50;94.80;;;;;;601925;238;26609;-67
2022/07/23 03:46:12;;;;;;;3.30;2.95;;;16.60;94.70;;;;;;602247;236;26865;-66
2022/07/23 03:48:39;;;;;;;3.05;2.78;;;16.50;94.70;;;;;;606622;235;26586;-67
2022/07/23 03:51:07;;;;;;;3.53;2.60;;;16.60;94.60;;;;;;609681;235;27166;-66
2022/07/23 03:53:33;;;;;;;3.70;2.83;;;16.60;94.30;;;;;;609966;235;26637;-66
2022/07/23 03:56:01;;;;;;;2.67;2.45;;;16.50;94.20;;;;;;608681;235;26867;-66
2022/07/23 03:58:28;;;;;;;3.95;2.85;;;16.60;93.90;;;;;;607410;235;26584;-66
2022/07/23 04:00:55;;;;;;;2.80;2.60;;;16.50;93.60;;;;;;602239;236;27253;-66
2022/07/23 04:03:22;;;;;;;2.92;2.72;;;16.50;93.40;;;;;;603383;237;26610;-66
2022/07/23 04:05:49;;;;;;;2.40;2.20;;;16.50;92.80;;;;;;601618;239;26827;-67
2022/07/23 04:08:17;;;;;;;2.45;2.10;;;16.60;92.40;;;;;;603653;238;26583;-67
2022/07/23 04:10:44;;;;;;;3.10;2.47;;;16.70;91.70;;;;;;604650;237;26840;-66
2022/07/23 04:13:12;;;;;;;2.67;2.42;;;16.70;91.00;;;;;;604682;238;26609;-66
2022/07/23 04:15:40;;;;;;;2.20;2.10;;;16.70;90.90;;;;;;604709;238;26600;-66
2022/07/23 04:18:08;;;;;;;2.67;2.35;;;16.70;90.50;;;;;;604739;237;26586;-66
2022/07/23 04:20:35;;;;;;;2.92;2.50;;;16.70;90.50;;;;;;602598;238;26591;-66
2022/07/23 04:23:02;;;;;;;2.45;2.25;;;16.70;90.50;;;;;;601690;238;26849;-66
2022/07/23 04:25:30;;;;;;;2.40;2.20;;;16.70;90.60;;;;;;602252;237;26596;-66
2022/07/23 04:27:57;;;;;;;3.42;2.17;;;16.80;90.20;;;;;;603065;238;27133;-66
2022/07/23 04:30:25;;;;;;;2.47;2.28;;;17.00;89.00;;;;;;602809;235;26666;-66
2022/07/23 04:32:53;;;;;;;2.25;2.00;;;16.90;87.30;;;;;;605887;235;26614;-65
2022/07/23 04:35:21;;;;;;;3.45;2.20;;;16.90;88.10;;;;;;602629;238;26570;-66
2022/07/23 04:37:49;;;;;;;2.65;2.08;;;17.00;87.50;;;;;;602137;239;26681;-66
2022/07/23 04:40:16;;;;;;;2.75;2.28;;;16.90;87.40;;;;;;603820;235;26682;-66
2022/07/23 04:42:43;;;;;;;2.58;1.90;;;16.90;90.60;;;;;;605241;238;26676;-67
2022/07/23 04:45:10;;;;;;;2.35;2.03;;;16.60;94.90;;;;;;604998;235;26821;-67
2022/07/23 04:47:38;;;;;;;3.20;2.20;;;16.20;95.00;;;;;;609263;235;27284;-66
2022/07/23 04:50:07;;;;;;;3.53;2.17;;;16.10;97.40;;;;;;601987;236;26843;-66
2022/07/23 04:52:34;;;;;;;3.08;2.35;;;16.10;97.60;;;;;;601912;239;26613;-68
2022/07/23 04:55:01;;;;;;;2.22;2.03;;;16.20;96.40;;;;;;603708;235;26821;-65
2022/07/23 04:57:28;;;;;;;2.45;2.08;;;16.10;96.20;;;;;;604472;236;26572;-66
2022/07/23 04:59:55;;;;;;;2.90;2.15;;;16.10;96.60;;;;;;604433;236;26823;-67
2022/07/23 05:02:23;;;;;;;3.55;2.28;;;16.10;98.30;;;;;;601878;236;26596;-67
2022/07/23 05:04:50;;;;;;;3.03;1.73;;;16.10;97.90;;;;;;605561;232;26793;-67
2022/07/23 05:07:17;;;;;;;4.30;2.37;;;16.20;98.40;;;;;;612525;235;26597;-67
2022/07/23 05:09:44;;;;;;;2.45;1.80;;;16.10;98.30;;;;;;606253;235;26989;-67
2022/07/23 05:12:12;;;;;;;2.20;1.95;;;16.20;98.90;;;;;;601667;238;26618;-67
2022/07/23 05:14:40;;;;;;;3.62;2.10;;;16.20;99.10;;;;;;609660;236;26588;-66
2022/07/23 05:17:08;;;;;;;4.03;2.40;;;16.20;99.00;;;;;;608722;235;26648;-65
2022/07/23 05:19:36;;;;;;;2.17;1.98;;;16.20;99.10;;;;;;601836;236;26603;-66
2022/07/23 05:22:05;;;;;;;2.75;1.70;;;16.30;99.90;;;;;;602163;236;26629;-66
2022/07/23 05:24:32;;;;;;;2.25;1.77;;;16.30;99.90;;;;;;601704;236;26543;-66
2022/07/23 05:26:59;;;;;;;2.12;1.65;;;16.30;98.90;;;;;;601738;236;26573;-66
2022/07/23 05:29:26;;;;;;;1.60;1.50;;;16.30;99.90;;;;;;605189;236;26818;-66
2022/07/23 05:31:53;;;;;;;2.33;1.83;;;16.40;99.90;;;;;;607640;235;26620;-66
2022/07/23 05:34:20;;;;;;;2.60;2.00;;;16.50;99.90;;;;;;601838;235;26917;-66
2022/07/23 05:36:48;;;;;;;2.62;1.70;;;16.50;99.40;;;;;;604229;235;26601;-67
2022/07/23 05:39:15;;;;;;;2.03;1.80;;;16.50;99.40;;;;;;604803;234;27243;-67
2022/07/23 05:41:42;;;;;;;3.25;1.83;;;16.50;99.90;;;;;;602635;237;26635;-67
2022/07/23 05:44:09;;;;;;;3.05;1.95;;;16.60;99.70;;;;;;605281;235;26833;-67
2022/07/23 05:46:36;;;;;;;1.95;1.70;;;16.60;99.30;;;;;;604949;237;26559;-67
2022/07/23 05:49:04;;;;;;;1.55;1.45;;;16.70;99.90;;;;;;603256;235;26662;-66
2022/07/23 05:51:32;;;;;;;1.87;1.60;;;16.60;99.90;;;;;;602218;235;26618;-66
2022/07/23 05:54:00;;;;;;;3.55;1.85;;;16.70;99.90;;;;;;602662;235;26643;-66
2022/07/23 05:56:28;;;;;;;1.77;1.45;;;16.70;99.90;;;;;;605656;236;26564;-66
2022/07/23 05:58:55;;;;;;;1.73;1.58;;;16.70;99.90;;;;;;605890;236;26837;-66
2022/07/23 06:01:22;;;;;;;1.70;1.30;;;16.60;99.90;;;;;;604898;237;26598;-66
2022/07/23 06:03:50;;;;;;;1.90;1.27;;;16.60;99.90;;;;;;602827;238;26958;-67
2022/07/23 06:06:17;;;;;;;2.03;1.70;;;16.60;99.90;;;;;;608547;235;26587;-67
2022/07/23 06:08:44;;;;;;;2.20;1.50;;;16.60;99.90;;;;;;605101;235;26875;-67
2022/07/23 06:11:11;;;;;;;1.48;1.35;;;16.50;99.90;;;;;;602007;236;26599;-67
2022/07/23 06:13:38;;;;;;;2.03;1.50;;;16.40;99.90;;;;;;602005;236;26964;-67
2022/07/23 06:16:06;;;;;;;1.98;1.52;;;16.40;99.90;;;;;;603430;236;26589;-67
2022/07/23 06:18:33;;;;;;;2.30;1.40;;;16.40;99.90;;;;;;604919;236;26833;-67
2022/07/23 06:21:01;;;;;;;2.33;1.80;;;16.50;99.90;;;;;;610009;235;26634;-67
2022/07/23 06:23:29;;;;;;;2.17;1.73;;;16.50;99.90;;;;;;609841;235;26673;-66
2022/07/23 06:25:57;;;;;;;3.00;1.73;;;16.50;99.90;;;;;;601803;236;26592;-66
2022/07/23 06:28:24;;;;;;;1.77;1.58;;;16.50;99.90;;;;;;612217;235;27338;-66
2022/07/23 06:30:51;;;;;;;2.15;1.60;;;16.60;99.90;;;;;;604879;236;26572;-66
2022/07/23 06:33:19;;;;;;;2.20;1.60;;;16.60;99.90;;;;;;608412;235;27030;-66
2022/07/23 06:35:46;;;;;;;2.08;1.70;;;16.60;99.90;;;;;;607677;235;26588;-66
2022/07/23 06:38:13;;;;;;;1.50;1.40;;;16.70;99.90;;;;;;604791;235;26822;-66
2022/07/23 06:40:41;;;;;;;3.12;1.62;;;16.90;99.90;;;;;;607204;235;26583;-65
2022/07/23 06:43:09;;;;;;;1.85;1.65;;;16.90;99.90;;;;;;609901;236;26628;-65
2022/07/23 06:45:36;;;;;;;2.60;1.42;;;16.90;99.90;;;;;;603986;235;26593;-65
2022/07/23 06:48:03;;;;;;;5.45;2.30;;;17.00;99.90;;;;;;604215;233;26588;-64
2022/07/23 06:50:31;;;;;;;7.55;2.47;;;16.90;99.90;;;;;;607541;234;26594;-66
2022/07/23 06:52:59;;;;;;;2.40;1.75;;;16.90;99.90;;;;;;604463;235;27066;-67
2022/07/23 06:55:26;;;;;;;16.87;2.85;;;16.90;99.90;;;;;;604464;234;26575;-68
2022/07/23 06:57:54;;;;;;;4.90;1.42;;;17.10;99.90;;;;;;605400;235;26679;-68
2022/07/23 07:00:22;;;;;;;2.00;1.60;;;17.20;99.90;;;;;;606681;235;26615;-69
2022/07/23 07:02:50;;;;;;;3.50;1.40;;;17.20;99.90;;;;;;606206;234;26623;-68
2022/07/23 07:05:17;;;;;;;1.77;1.62;;;17.20;99.90;;;;;;604631;235;26641;-68
2022/07/23 07:07:44;;;;;;;2.78;1.50;;;17.20;99.90;;;;;;607931;232;26594;-68
2022/07/23 07:10:12;;;;;;;2.80;1.60;;;17.30;99.90;;;;;;604176;235;26589;-69
2022/07/23 07:12:40;;;;;;;1.92;1.70;;;17.40;99.90;;;;;;606527;234;26620;-68
2022/07/23 07:15:08;;;;;;;4.62;1.85;;;17.50;99.90;;;;;;605652;236;26822;-67
2022/07/23 07:17:36;;;;;;;2.85;1.75;;;17.50;99.90;;;;;;604885;236;26601;-67
2022/07/23 07:20:04;;;;;;;2.60;1.90;;;17.60;99.90;;;;;;604191;236;26912;-68
2022/07/23 07:22:31;;;;;;;4.65;1.83;;;17.90;99.90;;;;;;605679;231;26585;-68
2022/07/23 07:24:59;;;;;;;5.28;2.00;;;18.10;99.90;;;;;;606561;232;26602;-68
2022/07/23 07:27:27;;;;;;;2.20;1.80;;;18.20;99.90;;;;;;603242;238;26583;-67
2022/07/23 07:29:55;;;;;;;2.17;1.77;;;18.30;99.40;;;;;;603906;236;26583;-68
2022/07/23 07:32:24;;;;;;;7.22;2.35;;;18.20;99.90;;;;;;605442;236;26608;-68
2022/07/23 07:34:51;;;;;;;2.30;2.00;;;18.20;99.90;;;;;;605154;235;26833;-68
2022/07/23 07:37:19;;;;;;;3.55;1.85;;;18.20;99.90;;;;;;603867;235;26846;-68
2022/07/23 07:39:46;;;;;;;5.03;1.90;;;18.40;99.90;;;;;;603828;236;26595;-68
2022/07/23 07:42:14;;;;;;;3.60;2.10;;;18.60;99.40;;;;;;603981;235;26634;-68
2022/07/23 07:44:42;;;;;;;2.47;1.80;;;18.60;99.00;;;;;;605459;235;26841;-69
2022/07/23 07:47:09;;;;;;;2.87;2.03;;;18.70;98.90;;;;;;603294;234;26604;-68
2022/07/23 07:49:36;;;;;;;1.92;1.70;;;18.70;99.20;;;;;;607954;231;26547;-68
2022/07/23 07:52:05;;;;;;;1.90;1.80;;;18.50;98.20;;;;;;603438;235;26617;-66
2022/07/23 07:54:32;;;;;;;3.08;2.08;;;18.60;98.90;;;;;;605838;232;26600;-67
2022/07/23 07:56:59;;;;;;;4.62;1.90;;;18.50;97.80;;;;;;605860;235;26634;-67
2022/07/23 07:59:27;;;;;;;3.55;1.90;;;18.50;97.90;;;;;;602750;238;26598;-67
2022/07/23 08:01:54;;;;;;;1.73;1.62;;;18.30;99.00;;;;;;605454;235;26570;-67
2022/07/23 08:04:25;;;;;;;2.25;1.62;;;18.50;99.30;;;;;;603095;235;26859;-69
2022/07/23 08:06:53;;;;;;;2.72;1.67;;;18.40;98.60;;;;;;603902;237;26790;-68
2022/07/23 08:09:21;;;;;;;4.70;2.10;;;18.50;99.10;;;;;;605451;235;26558;-67
2022/07/23 08:11:51;;;;;;;2.78;1.73;;;18.50;99.10;;;;;;604787;232;26645;-66
2022/07/23 08:14:16;;;;;;;1.80;1.65;;;18.60;98.30;;;;;;602579;238;26868;-66
2022/07/23 08:16:43;;;;;;;3.45;1.90;;;18.90;96.40;;;;;;606415;235;26637;-66
2022/07/23 08:19:10;;;;;;;2.00;1.80;;;19.20;96.30;;;;;;603439;237;26812;-65
2022/07/23 08:21:37;;;;;;;3.00;1.48;;;19.40;95.70;;;;;;608314;236;26589;-65
2022/07/23 08:24:05;;;;;;;2.47;1.50;;;19.40;94.20;;;;;;604660;235;27658;-66
2022/07/23 08:26:32;;;;;;;4.62;1.65;;;19.20;95.00;;;;;;605194;238;26800;-66
2022/07/23 08:28:59;;;;;;;3.42;1.80;;;19.50;94.70;;;;;;604613;236;26549;-66
2022/07/23 08:31:27;;;;;;;2.55;1.98;;;19.90;94.80;;;;;;603088;236;26804;-66
2022/07/23 08:33:54;;;;;;;2.45;1.42;;;20.10;93.70;;;;;;603809;235;26578;-66
2022/07/23 08:36:21;;;;;;;1.87;1.50;;;20.20;91.50;;;;;;611383;234;26573;-66
2022/07/23 08:38:49;;;;;;;2.45;1.33;;;20.00;90.70;;;;;;604087;234;26559;-66
2022/07/23 08:41:16;;;;;;;2.75;1.98;;;19.80;91.20;;;;;;604416;236;26549;-66
2022/07/23 08:43:43;;;;;;;2.20;1.30;;;19.40;91.00;;;;;;602644;237;26605;-66
2022/07/23 08:46:11;;;;;;;1.10;1.00;;;19.40;91.90;;;;;;606973;235;26628;-67
2022/07/23 08:48:39;;;;;;;3.53;1.73;;;19.70;91.80;;;;;;607520;235;26637;-67
2022/07/23 08:51:07;;;;;;;2.78;1.50;;;19.80;90.50;;;;;;603084;235;26592;-67
2022/07/23 08:53:37;;;;;;;2.33;1.87;;;20.10;90.00;;;;;;604118;236;26599;-67
2022/07/23 08:56:04;;;;;;;4.35;1.60;;;19.50;87.90;;;;;;603303;237;26559;-67
2022/07/23 08:58:31;;;;;;;1.65;1.50;;;19.50;88.00;;;;;;603709;235;26589;-68
2022/07/23 09:00:59;;;;;;;2.87;1.42;;;19.30;88.50;;;;;;605067;235;26583;-66
2022/07/23 09:03:29;;;;;;;2.58;1.48;;;19.30;89.00;;;;;;602414;236;26605;-67
2022/07/23 09:05:57;;;;;;;2.60;1.17;;;19.30;89.80;;;;;;604309;236;26605;-65
2022/07/23 09:08:24;;;;;;;5.70;1.58;;;19.40;88.10;;;;;;603442;236;26601;-65
2022/07/23 09:10:56;;;;;;;1.20;1.10;;;19.30;88.00;;;;;;604893;235;26586;-65
2022/07/23 09:13:32;;;;;;;2.20;1.45;;;19.40;86.60;;;;;;608610;230;26877;-66
2022/07/23 09:16:16;;;;;;;2.78;1.35;;;19.70;87.00;;;;;;605809;234;26656;-66
2022/07/23 09:18:47;;;;;;;1.30;1.20;;;20.20;85.80;;;;;;606261;234;26689;-65
2022/07/23 09:21:29;;;;;;;1.30;1.20;;;20.20;85.80;;;;;;606038;234;26840;-66
2022/07/23 09:24:05;;;;;;;3.62;1.37;;;20.20;83.60;;;;;;601186;235;26646;-67
2022/07/23 09:26:42;;;;;;;1.75;1.20;;;20.20;83.80;;;;;;606454;235;26573;-68
2022/07/23 09:29:12;;;;;;;1.92;1.37;;;20.00;83.20;;;;;;606377;235;26811;-66
2022/07/23 09:31:48;;;;;;;1.52;1.30;;;19.90;85.00;;;;;;603774;238;26589;-67
2022/07/23 09:34:21;;;;;;;2.53;1.58;;;20.20;84.00;;;;;;609047;231;26643;-68
2022/07/23 09:36:48;;;;;;;1.90;1.70;;;20.20;84.00;;;;;;602943;238;26828;-68
2022/07/23 09:39:17;;;;;;;2.55;1.55;;;20.30;83.00;;;;;;603394;238;26593;-68
2022/07/23 09:41:44;;;;;;;3.67;1.67;;;20.30;82.90;;;;;;600652;239;26591;-67
2022/07/23 09:44:16;;;;;;;1.62;1.50;;;20.20;81.20;;;;;;604709;238;26578;-67
2022/07/23 09:46:43;;;;;;;2.00;1.80;;;20.30;81.30;;;;;;604540;236;26601;-67
2022/07/23 09:49:10;;;;;;;2.42;1.50;;;20.60;79.80;;;;;;603155;238;26820;-68
2022/07/23 09:51:43;;;;;;;3.22;2.10;;;20.50;79.90;;;;;;602466;238;26582;-68
2022/07/23 09:54:11;;;;;;;5.95;2.33;;;20.60;79.60;;;;;;603879;235;26586;-68
2022/07/23 09:56:38;;;;;;;2.78;1.90;;;20.80;78.70;;;;;;605245;236;26586;-69
2022/07/23 09:59:07;;;;;;;2.42;1.77;;;21.10;77.90;;;;;;605327;236;26598;-69
2022/07/23 10:01:33;;;;;;;3.05;1.65;;;20.90;77.20;;;;;;601603;238;26562;-69
2022/07/23 10:04:01;;;;;;;2.72;2.10;;;21.60;76.40;;;;;;604444;238;26591;-68
2022/07/23 10:06:29;;;;;;;5.00;2.42;;;21.70;74.20;;;;;;607053;235;26584;-69
2022/07/23 10:08:57;;;;;;;9.18;4.68;;;21.90;73.60;;;;;;607137;235;26647;-68
2022/07/23 10:11:25;;;;;;;5.00;3.15;;;22.10;72.00;;;;;;607292;236;26616;-68
2022/07/23 10:13:54;;;;;;;4.80;3.45;;;22.00;71.90;;;;;;602525;236;26649;-67
2022/07/23 10:16:19;;;;;;;4.12;3.25;;;22.30;70.90;;;;;;602295;238;26606;-66
2022/07/23 10:18:47;;;;;;;10.52;7.35;;;22.40;69.20;;;;;;603496;236;26838;-66
2022/07/23 10:21:14;;;;;;;4.62;4.20;;;22.00;69.30;;;;;;607917;236;26572;-67
2022/07/23 10:23:51;;;;;;;5.28;4.43;;;22.10;68.70;;;;;;604124;234;27178;-66
2022/07/23 10:26:22;;;;;;;3.80;2.78;;;22.00;67.60;;;;;;612648;234;26617;-66
2022/07/23 10:29:03;;;;;;;6.72;5.30;;;22.10;68.90;;;;;;605531;237;26610;-66
2022/07/23 10:31:39;;;;;;;8.57;6.68;;;22.00;68.20;;;;;;611259;234;27254;-66
2022/07/23 10:34:17;;;;;;;10.93;7.32;;;21.80;67.60;;;;;;606485;234;26863;-66
2022/07/23 10:36:51;;;;;;;4.75;4.22;;;21.80;68.70;;;;;;603274;238;26630;-66
2022/07/23 10:39:28;;;;;;;4.80;4.22;;;21.80;68.70;;;;;;604060;238;26631;-65
2022/07/23 10:42:12;;;;;;;6.97;4.32;;;22.10;67.80;;;;;;603396;238;26906;-66
2022/07/23 10:44:43;;;;;;;7.05;4.55;;;21.50;67.30;;;;;;605178;235;26603;-66
2022/07/23 10:47:43;;;;;;;3.42;3.12;;;21.50;67.40;;;;;;604949;235;26826;-65
2022/07/23 10:49:54;;;;;;;4.00;3.60;;;21.70;68.30;;;;;;600554;234;26609;-66
2022/07/23 10:52:21;;;;;;;3.58;2.37;;;21.70;67.80;;;;;;601851;238;26850;-65
2022/07/23 10:54:50;;;;;;;2.08;1.92;;;21.70;67.60;;;;;;603647;235;26579;-66
2022/07/23 10:57:16;;;;;;;3.20;2.10;;;21.80;67.40;;;;;;607155;236;26589;-66
2022/07/23 11:00:11;;;;;;;3.12;2.80;;;21.90;66.70;;;;;;610076;236;26645;-66
2022/07/23 11:02:38;;;;;;;3.67;2.10;;;21.90;66.30;;;;;;601532;235;26621;-65
2022/07/23 11:05:06;;;;;;;2.50;1.75;;;22.10;66.90;;;;;;603354;238;26575;-65
2022/07/23 11:07:33;;;;;;;2.10;1.95;;;22.40;65.20;;;;;;603651;238;26591;-65
2022/07/23 11:10:00;;;;;;;4.10;2.03;;;22.30;64.70;;;;;;602165;237;26803;-65
2022/07/23 11:12:36;;;;;;;3.00;1.90;;;22.10;64.40;;;;;;606331;236;26644;-66
2022/07/23 11:15:03;;;;;;;3.72;2.00;;;21.90;65.20;;;;;;605476;235;26910;-66
2022/07/23 11:17:30;;;;;;;2.12;2.03;;;22.10;64.90;;;;;;610544;235;26617;-66
2022/07/23 11:20:15;;;;;;;2.67;1.98;;;22.30;63.70;;;;;;604656;236;26838;-65
2022/07/23 11:22:48;;;;;;;3.30;2.08;;;22.70;63.20;;;;;;603761;234;26821;-66
2022/07/23 11:25:36;;;;;;;2.08;1.87;;;23.00;62.20;;;;;;606638;235;26591;-67
2022/07/23 11:28:09;;;;;;;29.15;6.60;;;23.40;60.40;;;;;;608445;236;26609;-66
2022/07/23 11:30:37;;;;;;;88.18;19.15;;;23.50;59.70;;;;;;602724;238;26821;-68
2022/07/23 11:33:22;;;;;;;108.68;24.12;;;23.80;59.80;;;;;;602903;238;26606;-67
2022/07/23 11:35:49;;;;;;;128.35;30.15;;;23.80;59.20;;;;;;605298;235;26545;-65
2022/07/23 11:38:17;;;;;;;127.05;30.70;;;23.70;59.10;;;;;;604064;235;26844;-68
2022/07/23 11:40:44;;;;;;;116.65;27.00;;;23.80;59.00;;;;;;609681;235;26661;-68
2022/07/23 11:43:12;;;;;;;38.95;13.15;;;24.00;59.20;;;;;;604228;237;26670;-65
2022/07/23 11:45:41;;;;;;;49.63;13.55;;;24.50;58.40;;;;;;602179;238;26646;-66
2022/07/23 11:48:08;;;;;;;53.70;13.52;;;24.60;58.00;;;;;;602170;238;26674;-66
2022/07/23 11:50:36;;;;;;;34.75;10.40;;;24.80;57.40;;;;;;602055;238;26850;-66
2022/07/23 11:53:03;;;;;;;16.20;6.70;;;25.30;57.20;;;;;;602122;238;26653;-66
2022/07/23 11:55:31;;;;;;;15.13;6.10;;;24.70;56.40;;;;;;601929;239;26815;-66
2022/07/23 11:57:58;;;;;;;9.73;4.72;;;24.70;56.80;;;;;;601605;236;26803;-66
2022/07/23 12:00:25;;;;;;;20.35;7.53;;;24.90;56.30;;;;;;601849;238;26589;-66
2022/07/23 12:02:53;;;;;;;10.68;4.43;;;25.30;55.80;;;;;;601745;239;26898;-66
2022/07/23 12:05:23;;;;;;;15.02;4.45;;;25.30;55.40;;;;;;601792;239;26804;-67
2022/07/23 12:07:50;;;;;;;6.53;3.60;;;25.30;55.60;;;;;;601911;238;27173;-66
2022/07/23 12:10:19;;;;;;;9.30;3.42;;;25.60;54.50;;;;;;601878;238;26585;-66
2022/07/23 12:12:54;;;;;;;5.65;3.15;;;25.60;54.50;;;;;;601560;239;26855;-66
2022/07/23 12:15:22;;;;;;;5.97;3.25;;;25.30;54.00;;;;;;601730;239;26806;-66
2022/07/23 12:17:49;;;;;;;3.10;1.90;;;25.00;54.60;;;;;;601542;239;26589;-66
2022/07/23 12:20:16;;;;;;;3.03;2.70;;;25.20;54.50;;;;;;601680;239;26823;-66
2022/07/23 12:22:44;;;;;;;2.83;2.20;;;25.30;53.80;;;;;;601691;239;26606;-66
2022/07/23 12:25:16;;;;;;;5.32;2.20;;;25.30;53.80;;;;;;601531;239;26854;-66
2022/07/23 12:27:43;;;;;;;5.05;2.50;;;25.80;53.60;;;;;;601614;239;26581;-65
2022/07/23 12:30:24;;;;;;;2.92;2.20;;;25.70;53.00;;;;;;602005;238;26828;-65
2022/07/23 12:32:51;;;;;;;2.20;1.92;;;25.60;53.50;;;;;;601901;239;26593;-65
2022/07/23 12:35:18;;;;;;;3.17;2.20;;;25.90;52.60;;;;;;602038;239;26553;-66
2022/07/23 12:37:45;;;;;;;4.05;2.53;;;26.00;52.40;;;;;;602011;239;26548;-66
2022/07/23 12:40:20;;;;;;;4.00;2.70;;;26.10;52.70;;;;;;602077;238;26562;-66
2022/07/23 12:42:48;;;;;;;4.25;2.30;;;26.10;51.50;;;;;;601988;239;26605;-66
2022/07/23 12:45:16;;;;;;;2.37;2.17;;;25.90;51.90;;;;;;602043;239;26553;-66
2022/07/23 12:47:50;;;;;;;2.00;1.85;;;25.90;51.90;;;;;;603092;237;26569;-66
2022/07/23 12:50:29;;;;;;;2.30;2.10;;;25.50;51.60;;;;;;602825;238;26645;-66
2022/07/23 12:53:04;;;;;;;2.78;2.03;;;25.10;52.30;;;;;;602465;239;26856;-66